Terminal Aerodrome Forecast
Issued by NWS

Home | Current Version | Previous Version | Text Only | Print | Product List | Glossary On
Versions: 1 2 3 4 5 6 7 8 9 10 11 12 13 14
413
FTUS44 KJAN 291150 RRB
TAFHKS
TAF
KHKS 291150Z 2912/3012 14004KT P6SM SCT009 BKN020 BKN040
     FM291430 15010G19KT P6SM BKN020 BKN030
     FM291600 16013G20KT P6SM SCT020 BKN030
     FM292200 16014G22KT P6SM VCTS SCT025 BKN050CB
     FM300300 14009KT P6SM VCSH SCT025 BKN050=

USA.gov is the U.S. government's official web portal to all federal, state and local government web resources and services.